createdAt,value
2022-11-26T00:02:31.528Z,14.80
2022-11-26T00:04:59.816Z,15.83
2022-11-26T00:07:30.287Z,11.77
2022-11-26T00:09:59.730Z,17.37
2022-11-26T00:12:35.006Z,10.03
2022-11-26T00:15:24.727Z,16.20
2022-11-26T00:17:52.992Z,9.17
2022-11-26T00:20:25.325Z,13.40
2022-11-26T00:22:55.494Z,11.90
2022-11-26T00:25:27.004Z,7.53
2022-11-26T00:27:56.175Z,14.10
2022-11-26T00:30:27.124Z,15.70
2022-11-26T00:32:55.714Z,14.10
2022-11-26T00:35:24.075Z,11.03
2022-11-26T00:37:57.952Z,8.50
2022-11-26T00:40:28.639Z,14.20
2022-11-26T00:43:01.287Z,15.23
2022-11-26T00:45:31.397Z,11.60
2022-11-26T00:47:58.499Z,18.43
2022-11-26T00:50:27.637Z,11.37
2022-11-26T00:52:56.930Z,16.50
2022-11-26T00:55:40.374Z,14.83
2022-11-26T00:58:21.329Z,14.50
2022-11-26T01:00:48.299Z,10.43
2022-11-26T01:03:15.353Z,15.53
2022-11-26T01:05:43.570Z,8.50
2022-11-26T01:08:35.385Z,14.27
2022-11-26T01:11:05.098Z,13.40
2022-11-26T01:13:32.634Z,14.77
2022-11-26T01:16:02.864Z,17.53
2022-11-26T01:18:35.049Z,23.17
2022-11-26T01:21:02.057Z,12.67
2022-11-26T01:23:29.151Z,9.83
2022-11-26T01:25:56.123Z,22.30
2022-11-26T01:28:23.070Z,19.90
2022-11-26T01:30:50.038Z,11.83
2022-11-26T01:33:18.036Z,15.87
2022-11-26T01:35:46.002Z,17.97
2022-11-26T01:38:14.768Z,10.60
2022-11-26T01:41:12.743Z,13.90
2022-11-26T01:43:44.165Z,16.83
2022-11-26T01:46:18.619Z,14.67
2022-11-26T01:48:47.132Z,20.57
2022-11-26T01:51:27.260Z,16.20
2022-11-26T01:54:00.467Z,16.07
2022-11-26T01:56:46.316Z,11.40
2022-11-26T01:59:26.336Z,19.80
2022-11-26T02:01:59.009Z,17.93
2022-11-26T02:04:32.516Z,11.50
2022-11-26T02:07:00.116Z,9.67
2022-11-26T02:09:28.850Z,13.73
2022-11-26T02:11:56.315Z,9.37
2022-11-26T02:14:34.096Z,15.57
2022-11-26T02:17:26.101Z,13.53
2022-11-26T02:20:14.994Z,12.60
2022-11-26T02:23:18.808Z,12.07
2022-11-26T02:26:23.620Z,13.90
2022-11-26T02:29:20.272Z,12.17
2022-11-26T02:32:00.059Z,17.17
2022-11-26T02:34:40.417Z,15.13
2022-11-26T02:37:23.474Z,16.20
2022-11-26T02:39:52.184Z,14.80
2022-11-26T02:42:32.807Z,14.50
2022-11-26T02:45:37.622Z,14.27
2022-11-26T02:48:11.781Z,17.57
2022-11-26T02:50:49.798Z,14.63
2022-11-26T02:53:21.823Z,10.47
2022-11-26T02:56:01.652Z,9.97
2022-11-26T02:58:29.291Z,15.53
2022-11-26T03:01:00.279Z,12.70
2022-11-26T03:03:33.815Z,14.70
2022-11-26T03:06:06.678Z,13.47
2022-11-26T03:08:33.992Z,21.90
2022-11-26T03:11:01.004Z,15.33
2022-11-26T03:13:28.430Z,16.00
2022-11-26T03:15:55.351Z,15.20
2022-11-26T03:18:22.323Z,11.47
2022-11-26T03:20:52.518Z,15.60
2022-11-26T03:23:20.025Z,11.50
2022-11-26T03:25:46.909Z,10.53
2022-11-26T03:28:14.227Z,6.07
2022-11-26T03:30:41.122Z,18.23
2022-11-26T03:33:08.022Z,13.13
2022-11-26T03:35:35.015Z,9.90
2022-11-26T03:38:02.085Z,11.73
2022-11-26T03:40:29.059Z,11.60
2022-11-26T03:42:55.977Z,14.77
2022-11-26T03:45:22.900Z,15.63
2022-11-26T03:47:49.979Z,11.00
2022-11-26T03:50:17.124Z,13.33
2022-11-26T03:52:44.109Z,12.73
2022-11-26T03:55:11.263Z,9.47
2022-11-26T03:57:38.384Z,13.50
2022-11-26T04:00:09.104Z,13.03
2022-11-26T04:02:36.849Z,13.03
2022-11-26T04:05:04.621Z,13.03
2022-11-26T04:07:31.603Z,10.20
2022-11-26T04:09:58.572Z,8.80
2022-11-26T04:12:25.550Z,9.00
2022-11-26T04:14:52.593Z,14.17
2022-11-26T04:17:19.532Z,8.67
2022-11-26T04:19:46.472Z,6.10
2022-11-26T04:22:13.564Z,5.20
2022-11-26T04:24:40.928Z,8.03
2022-11-26T04:27:08.058Z,5.30
2022-11-26T04:29:36.337Z,10.13
2022-11-26T04:32:04.468Z,5.83
2022-11-26T04:34:31.581Z,9.43
2022-11-26T04:36:58.538Z,7.13
2022-11-26T04:39:25.479Z,8.03
2022-11-26T04:41:52.581Z,6.80
2022-11-26T04:44:19.493Z,12.70
2022-11-26T04:46:46.465Z,11.40
2022-11-26T04:49:13.512Z,9.50
2022-11-26T04:51:40.438Z,6.40
2022-11-26T04:54:12.607Z,10.10
2022-11-26T04:56:39.989Z,9.70
2022-11-26T04:59:07.023Z,12.10
2022-11-26T05:01:35.229Z,7.73
2022-11-26T05:04:02.230Z,9.20
2022-11-26T05:06:29.197Z,7.93
2022-11-26T05:08:56.159Z,21.43
2022-11-26T05:11:23.097Z,14.57
2022-11-26T05:13:50.127Z,18.63
2022-11-26T05:16:17.306Z,15.20
2022-11-26T05:18:44.269Z,11.80
2022-11-26T05:21:11.243Z,6.90
2022-11-26T05:23:38.100Z,21.00
2022-11-26T05:26:05.316Z,12.87
2022-11-26T05:28:32.304Z,16.53
2022-11-26T05:31:01.672Z,13.00
2022-11-26T05:33:29.510Z,15.33
2022-11-26T05:35:56.966Z,13.63
2022-11-26T05:38:24.076Z,14.67
2022-11-26T05:40:51.290Z,19.40
2022-11-26T05:43:18.301Z,20.13
2022-11-26T05:45:45.306Z,24.63
2022-11-26T05:48:12.446Z,17.43
2022-11-26T05:50:39.553Z,11.93
2022-11-26T05:53:06.508Z,20.43
2022-11-26T05:55:33.749Z,26.43
2022-11-26T05:58:00.871Z,16.97
2022-11-26T06:00:28.286Z,20.00
2022-11-26T06:02:55.355Z,21.57
2022-11-26T06:05:22.538Z,14.77
2022-11-26T06:07:50.300Z,14.20
2022-11-26T06:10:17.733Z,21.20
2022-11-26T06:12:44.753Z,16.63
2022-11-26T06:15:11.938Z,21.53
2022-11-26T06:17:38.954Z,24.57
2022-11-26T06:20:06.827Z,25.00
2022-11-26T06:22:38.675Z,21.00
2022-11-26T06:25:13.261Z,21.57
2022-11-26T06:27:40.547Z,21.00
2022-11-26T06:30:11.363Z,28.43
2022-11-26T06:32:38.411Z,20.00
2022-11-26T06:35:06.436Z,14.40
2022-11-26T06:37:34.790Z,16.17
2022-11-26T06:40:02.959Z,19.40
2022-11-26T06:42:29.996Z,31.13
2022-11-26T06:44:59.790Z,22.20
2022-11-26T06:47:29.402Z,23.30
2022-11-26T06:49:56.398Z,18.87
2022-11-26T06:52:23.336Z,20.43
2022-11-26T06:54:50.586Z,20.40
2022-11-26T06:57:17.502Z,26.00
2022-11-26T06:59:44.409Z,25.20
2022-11-26T07:02:11.699Z,20.80
2022-11-26T07:04:39.039Z,23.83
2022-11-26T07:07:06.148Z,27.93
2022-11-26T07:09:33.075Z,22.00
2022-11-26T07:12:00.045Z,22.87
2022-11-26T07:14:27.256Z,19.40
2022-11-26T07:16:54.148Z,28.80
2022-11-26T07:19:21.054Z,38.27
2022-11-26T07:21:47.922Z,24.07
2022-11-26T07:24:15.474Z,19.00
2022-11-26T07:26:43.857Z,19.90
2022-11-26T07:29:10.859Z,20.40
2022-11-26T07:31:37.851Z,21.73
2022-11-26T07:34:04.996Z,19.00
2022-11-26T07:36:31.990Z,17.40
2022-11-26T07:39:02.282Z,29.80
2022-11-26T07:41:30.530Z,17.23
2022-11-26T07:43:58.291Z,22.97
2022-11-26T07:46:26.733Z,13.70
2022-11-26T07:48:56.063Z,16.43
2022-11-26T07:51:29.830Z,17.00
2022-11-26T07:53:59.245Z,16.80
2022-11-26T07:56:27.085Z,26.97
2022-11-26T07:58:54.118Z,19.70
2022-11-26T08:01:24.723Z,20.87
2022-11-26T08:03:52.151Z,22.93
2022-11-26T08:06:25.878Z,29.17
2022-11-26T08:08:53.379Z,22.10
2022-11-26T08:11:27.343Z,20.40
2022-11-26T08:14:10.299Z,18.20
2022-11-26T08:16:37.465Z,20.90
2022-11-26T08:19:12.303Z,20.77
2022-11-26T08:21:39.908Z,26.97
2022-11-26T08:24:13.691Z,21.53
2022-11-26T08:26:44.103Z,26.60
2022-11-26T08:29:12.613Z,18.10
2022-11-26T08:31:45.815Z,20.60
2022-11-26T08:34:16.157Z,20.57
2022-11-26T08:36:43.771Z,18.90
2022-11-26T08:39:17.258Z,23.30
2022-11-26T08:41:51.771Z,24.80
2022-11-26T08:44:20.081Z,21.43
2022-11-26T08:46:47.259Z,20.53
2022-11-26T08:49:16.960Z,18.73
2022-11-26T08:51:44.583Z,19.97
2022-11-26T08:54:11.930Z,15.83
2022-11-26T08:56:38.974Z,19.40
2022-11-26T08:59:05.981Z,22.73
2022-11-26T09:01:34.284Z,19.07
2022-11-26T09:04:03.442Z,26.63
2022-11-26T09:06:33.178Z,18.40
2022-11-26T09:09:13.459Z,16.90
2022-11-26T09:11:40.553Z,18.93
2022-11-26T09:14:07.820Z,20.40
2022-11-26T09:16:34.929Z,23.13
2022-11-26T09:19:04.438Z,19.13
2022-11-26T09:21:31.670Z,15.43
2022-11-26T09:23:58.568Z,19.20
2022-11-26T09:26:25.780Z,19.57
2022-11-26T09:28:53.073Z,16.93
2022-11-26T09:31:20.232Z,15.93
2022-11-26T09:33:48.004Z,14.10
2022-11-26T09:36:17.398Z,15.33
2022-11-26T09:38:45.520Z,12.73
2022-11-26T09:41:27.474Z,13.30
2022-11-26T09:44:17.350Z,20.80
2022-11-26T09:47:15.094Z,11.87
2022-11-26T09:50:06.232Z,20.00
2022-11-26T09:53:02.575Z,16.60
2022-11-26T09:55:38.854Z,14.23
2022-11-26T09:58:33.332Z,11.20
2022-11-26T10:01:04.737Z,15.73
2022-11-26T10:03:35.944Z,11.13
2022-11-26T10:06:36.220Z,13.00
2022-11-26T10:09:28.843Z,9.10
2022-11-26T10:12:50.331Z,14.90
2022-11-26T10:15:40.241Z,11.97
2022-11-26T10:18:37.985Z,17.33
2022-11-26T10:21:57.180Z,13.00
2022-11-26T10:24:43.442Z,14.13
2022-11-26T10:27:20.442Z,10.63
2022-11-26T10:29:56.749Z,8.50
2022-11-26T10:32:28.199Z,10.20
2022-11-26T10:34:58.078Z,13.40
2022-11-26T10:37:27.523Z,11.07
2022-11-26T10:40:07.456Z,9.77
2022-11-26T10:42:43.891Z,10.37
2022-11-26T10:45:22.237Z,7.23
2022-11-26T10:47:49.297Z,11.67
2022-11-26T10:50:47.155Z,8.50
2022-11-26T10:53:23.109Z,13.50
2022-11-26T10:55:54.285Z,10.50
2022-11-26T10:58:30.364Z,13.90
2022-11-26T11:01:02.202Z,13.20
2022-11-26T11:06:44.049Z,9.63
2022-11-26T11:09:34.915Z,6.93
2022-11-26T11:12:10.986Z,6.20
2022-11-26T11:14:45.555Z,10.33
2022-11-26T11:17:38.767Z,10.97
2022-11-26T11:20:17.967Z,10.70
2022-11-26T11:22:46.065Z,12.57
2022-11-26T11:25:26.826Z,6.40
2022-11-26T11:28:10.493Z,7.87
2022-11-26T11:30:41.115Z,9.13
2022-11-26T11:33:24.806Z,6.00
2022-11-26T11:36:14.480Z,7.10
2022-11-26T11:39:00.994Z,7.73
2022-11-26T11:41:46.116Z,7.57
2022-11-26T11:44:42.268Z,12.70
2022-11-26T11:47:34.542Z,9.53
2022-11-26T11:50:18.142Z,13.40
2022-11-26T11:53:26.830Z,8.83
2022-11-26T11:56:15.909Z,8.63
2022-11-26T11:59:16.367Z,9.17
2022-11-26T12:01:55.343Z,9.87
2022-11-26T12:04:40.399Z,5.47
2022-11-26T12:07:38.748Z,8.97
2022-11-26T12:10:40.704Z,6.57
2022-11-26T12:13:13.177Z,12.47
2022-11-26T12:15:53.720Z,6.10
2022-11-26T12:18:34.709Z,6.23
2022-11-26T12:21:37.654Z,6.83
2022-11-26T12:24:36.361Z,7.13
2022-11-26T12:27:32.016Z,7.57
2022-11-26T12:30:22.737Z,6.53
2022-11-26T12:33:02.319Z,8.30
2022-11-26T12:35:34.939Z,6.10
2022-11-26T12:38:13.834Z,6.57
2022-11-26T12:41:20.327Z,8.53
2022-11-26T12:43:56.790Z,9.33
2022-11-26T12:47:14.306Z,4.37
2022-11-26T12:50:00.439Z,5.27
2022-11-26T12:53:09.736Z,6.57
2022-11-26T12:55:48.297Z,6.60
2022-11-26T12:58:22.830Z,8.93
2022-11-26T13:00:54.076Z,8.93
2022-11-26T13:03:32.207Z,6.30
2022-11-26T13:06:28.059Z,5.30
2022-11-26T13:09:22.658Z,7.40
2022-11-26T13:12:09.160Z,7.73
2022-11-26T13:14:52.155Z,8.70
2022-11-26T13:17:23.814Z,5.80
2022-11-26T13:20:28.243Z,4.40
2022-11-26T13:23:38.261Z,6.47
2022-11-26T13:26:21.458Z,5.63
2022-11-26T13:29:25.531Z,3.23
2022-11-26T13:32:39.285Z,5.90
2022-11-26T13:36:09.545Z,5.10
2022-11-26T13:39:23.409Z,6.47
2022-11-26T13:42:12.332Z,6.17
2022-11-26T13:45:02.735Z,5.10
2022-11-26T13:47:49.890Z,4.13
2022-11-26T13:50:37.962Z,6.90
2022-11-26T13:53:15.500Z,8.00
2022-11-26T13:55:52.381Z,5.13
2022-11-26T13:58:28.310Z,2.67
2022-11-26T14:00:55.331Z,2.60
2022-11-26T14:03:46.751Z,9.40
2022-11-26T14:06:15.106Z,4.07
2022-11-26T14:08:46.865Z,6.20
2022-11-26T14:11:45.684Z,4.60
2022-11-26T14:14:24.791Z,4.23
2022-11-26T14:17:00.859Z,6.87
2022-11-26T14:19:41.072Z,3.77
2022-11-26T14:22:21.860Z,6.17
2022-11-26T14:24:51.534Z,5.97
2022-11-26T14:27:35.093Z,4.07
2022-11-26T14:30:18.293Z,4.37
2022-11-26T14:33:14.233Z,4.30
2022-11-26T14:35:54.899Z,5.93
2022-11-26T14:38:28.321Z,6.30
2022-11-26T14:41:00.871Z,3.77
2022-11-26T14:43:29.493Z,5.50
2022-11-26T14:46:14.062Z,5.67
2022-11-26T14:48:50.386Z,6.83
2022-11-26T14:51:24.902Z,6.93
2022-11-26T14:53:54.638Z,5.93
2022-11-26T14:56:24.169Z,6.43
2022-11-26T14:59:02.426Z,6.43
2022-11-26T15:01:30.895Z,6.90
2022-11-26T15:04:04.745Z,4.23
2022-11-26T15:06:46.165Z,8.33
2022-11-26T15:09:21.735Z,11.30
2022-11-26T15:11:55.784Z,4.83
2022-11-26T15:14:46.815Z,5.10
2022-11-26T15:17:17.943Z,7.07
2022-11-26T15:19:46.237Z,4.53
2022-11-26T15:22:23.407Z,5.97
2022-11-26T15:24:54.119Z,8.17
2022-11-26T15:27:39.936Z,6.73
2022-11-26T15:30:23.724Z,5.97
2022-11-26T15:33:04.282Z,5.30
2022-11-26T15:35:33.282Z,8.60
2022-11-26T15:38:00.453Z,7.00
2022-11-26T15:44:42.353Z,6.70
2022-11-26T15:47:22.929Z,4.20
2022-11-26T15:49:55.096Z,4.00
2022-11-26T15:52:32.814Z,4.03
2022-11-26T15:55:12.984Z,6.43
2022-11-26T15:57:42.148Z,4.60
2022-11-26T16:00:55.544Z,6.90
2022-11-26T16:03:48.741Z,4.10
2022-11-26T16:06:36.835Z,7.07
2022-11-26T16:09:06.103Z,9.03
2022-11-26T16:11:36.759Z,5.37
2022-11-26T16:14:23.729Z,5.40
2022-11-26T16:16:52.836Z,4.00
2022-11-26T16:19:27.283Z,4.53
2022-11-26T16:21:55.004Z,5.90
2022-11-26T16:24:38.673Z,7.30
2022-11-26T16:27:17.963Z,8.80
2022-11-26T16:29:45.829Z,4.87
2022-11-26T16:32:13.976Z,6.73
2022-11-26T16:34:41.287Z,5.43
2022-11-26T16:37:31.440Z,5.20
2022-11-26T16:40:14.890Z,5.67
2022-11-26T16:42:41.981Z,5.40
2022-11-26T16:45:12.059Z,8.30
2022-11-26T16:47:46.656Z,7.40
2022-11-26T16:50:21.580Z,6.87
2022-11-26T16:52:48.899Z,6.80
2022-11-26T16:55:21.664Z,6.30
2022-11-26T16:57:51.923Z,4.77
2022-11-26T17:00:22.842Z,5.50
2022-11-26T17:02:50.436Z,5.60
2022-11-26T17:05:19.675Z,8.90
2022-11-26T17:07:48.310Z,14.07
2022-11-26T17:10:28.435Z,16.00
2022-11-26T17:12:55.955Z,16.33
2022-11-26T17:15:23.055Z,6.90
2022-11-26T17:17:52.691Z,4.60
2022-11-26T17:20:27.327Z,5.93
2022-11-26T17:22:54.642Z,6.77
2022-11-26T17:25:21.679Z,5.10
2022-11-26T17:27:48.638Z,6.63
2022-11-26T17:30:24.014Z,9.27
2022-11-26T17:32:51.703Z,14.87
2022-11-26T17:35:23.123Z,23.83
2022-11-26T17:37:50.124Z,15.47
2022-11-26T17:40:22.805Z,7.63
2022-11-26T17:42:50.273Z,14.50
2022-11-26T17:45:18.899Z,15.37
2022-11-26T17:47:46.203Z,12.13
2022-11-26T17:50:22.495Z,10.90
2022-11-26T17:52:49.917Z,13.30
2022-11-26T17:55:18.315Z,9.87
2022-11-26T17:57:45.481Z,21.50
2022-11-26T18:00:25.826Z,15.70
2022-11-26T18:02:52.834Z,12.57
2022-11-26T18:05:19.816Z,14.77
2022-11-26T18:07:47.106Z,15.53
2022-11-26T18:10:16.749Z,14.13
2022-11-26T18:12:44.851Z,13.03
2022-11-26T18:15:26.882Z,10.70
2022-11-26T18:17:55.350Z,12.57
2022-11-26T18:20:25.902Z,18.70
2022-11-26T18:22:56.041Z,15.40
2022-11-26T18:25:23.442Z,20.67
2022-11-26T18:27:50.714Z,15.10
2022-11-26T18:30:18.519Z,19.60
2022-11-26T18:32:46.127Z,15.23
2022-11-26T18:35:13.915Z,21.70
2022-11-26T18:37:41.568Z,19.17
2022-11-26T18:40:13.947Z,14.87
2022-11-26T18:42:40.887Z,17.27
2022-11-26T18:45:11.839Z,19.07
2022-11-26T18:47:39.404Z,15.97
2022-11-26T18:50:07.549Z,13.97
2022-11-26T18:52:34.513Z,19.77
2022-11-26T18:55:08.151Z,17.83
2022-11-26T18:57:37.956Z,16.10
2022-11-26T19:00:07.030Z,13.13
2022-11-26T19:02:37.525Z,15.70
2022-11-26T19:05:05.584Z,12.63
2022-11-26T19:07:33.167Z,9.83
2022-11-26T19:10:00.158Z,9.57
2022-11-26T19:12:27.089Z,12.17
2022-11-26T19:14:54.071Z,8.47
2022-11-26T19:17:21.165Z,8.50
2022-11-26T19:19:48.234Z,10.87
2022-11-26T19:22:15.223Z,12.87
2022-11-26T19:24:42.141Z,11.30
2022-11-26T19:27:09.063Z,11.23
2022-11-26T19:29:36.052Z,12.17
2022-11-26T19:32:03.083Z,11.93
2022-11-26T19:34:30.420Z,7.57
2022-11-26T19:36:58.224Z,8.43
2022-11-26T19:39:25.248Z,11.63
2022-11-26T19:41:52.375Z,8.73
2022-11-26T19:44:19.314Z,10.27
2022-11-26T19:46:48.173Z,9.20
2022-11-26T19:49:15.327Z,10.97
2022-11-26T19:51:42.625Z,9.73
2022-11-26T19:54:10.388Z,10.83
2022-11-26T19:56:37.892Z,11.50
2022-11-26T19:59:05.251Z,10.40
2022-11-26T20:01:34.185Z,43.40
2022-11-26T20:04:05.500Z,25.57
2022-11-26T20:06:34.827Z,13.70
2022-11-26T20:09:04.451Z,10.27
2022-11-26T20:11:31.479Z,12.97
2022-11-26T20:13:58.765Z,11.07
2022-11-26T20:16:29.090Z,13.27
2022-11-26T20:18:59.107Z,11.80
2022-11-26T20:21:30.939Z,16.20
2022-11-26T20:24:01.960Z,17.10
2022-11-26T20:26:35.795Z,13.03
2022-11-26T20:29:09.152Z,13.17
2022-11-26T20:31:42.834Z,14.57
2022-11-26T20:34:09.829Z,15.00
2022-11-26T20:36:37.753Z,11.30
2022-11-26T20:39:04.904Z,14.40
2022-11-26T20:41:31.997Z,13.33
2022-11-26T20:43:59.829Z,17.80
2022-11-26T20:46:28.565Z,13.27
2022-11-26T20:48:56.438Z,14.77
2022-11-26T20:51:24.803Z,19.20
2022-11-26T20:54:03.913Z,19.20
2022-11-26T20:56:31.228Z,14.60
2022-11-26T20:58:58.267Z,22.73
2022-11-26T21:01:28.313Z,19.33
2022-11-26T21:03:56.035Z,19.90
2022-11-26T21:06:30.201Z,18.67
2022-11-26T21:09:01.664Z,25.30
2022-11-26T21:11:29.799Z,24.27
2022-11-26T21:13:59.821Z,25.50
2022-11-26T21:16:27.853Z,27.17
2022-11-26T21:18:55.222Z,23.00
2022-11-26T21:21:24.390Z,29.77
2022-11-26T21:23:51.501Z,26.10
2022-11-26T21:26:22.040Z,24.80
2022-11-26T21:28:54.788Z,30.73
2022-11-26T21:31:23.195Z,22.90
2022-11-26T21:34:02.423Z,30.00
2022-11-26T21:36:32.595Z,23.83
2022-11-26T21:39:00.109Z,28.83
2022-11-26T21:41:27.569Z,30.97
2022-11-26T21:43:54.777Z,30.10
2022-11-26T21:46:25.915Z,30.43
2022-11-26T21:48:54.473Z,25.13
2022-11-26T21:51:23.305Z,29.13
2022-11-26T21:53:52.620Z,28.17
2022-11-26T21:56:25.392Z,27.90
2022-11-26T21:58:52.460Z,27.50
2022-11-26T22:01:29.012Z,22.67
2022-11-26T22:04:00.352Z,28.33
2022-11-26T22:06:28.013Z,23.93
2022-11-26T22:08:55.521Z,22.13
2022-11-26T22:11:27.732Z,23.30
2022-11-26T22:13:55.207Z,23.27
2022-11-26T22:16:24.666Z,27.00
2022-11-26T22:18:52.485Z,25.10
2022-11-26T22:21:22.127Z,24.50
2022-11-26T22:23:50.052Z,24.07
2022-11-26T22:26:18.524Z,23.80
2022-11-26T22:28:46.459Z,26.30
2022-11-26T22:31:28.084Z,22.83
2022-11-26T22:33:59.475Z,22.97
2022-11-26T22:36:27.371Z,24.23
2022-11-26T22:38:55.194Z,23.93
2022-11-26T22:41:22.707Z,22.20
2022-11-26T22:43:49.936Z,29.47
2022-11-26T22:46:20.588Z,35.23
2022-11-26T22:48:59.738Z,23.73
2022-11-26T22:51:31.083Z,24.40
2022-11-26T22:54:04.992Z,26.23
2022-11-26T22:56:32.533Z,26.40
2022-11-26T22:59:01.577Z,27.57
2022-11-26T23:01:34.966Z,26.37
2022-11-26T23:04:07.004Z,25.47
2022-11-26T23:06:35.859Z,31.10
2022-11-26T23:09:05.627Z,24.43
2022-11-26T23:11:37.758Z,24.40
2022-11-26T23:14:07.392Z,28.03
2022-11-26T23:16:36.413Z,24.73
2022-11-26T23:19:04.112Z,26.17
2022-11-26T23:21:39.774Z,30.97
2022-11-26T23:24:07.951Z,23.43
2022-11-26T23:26:37.789Z,21.60
2022-11-26T23:29:05.755Z,18.97
2022-11-26T23:31:36.587Z,22.17
2022-11-26T23:34:05.299Z,28.03
2022-11-26T23:36:33.137Z,43.83
2022-11-26T23:39:02.564Z,17.27
2022-11-26T23:41:29.657Z,16.30
2022-11-26T23:43:57.048Z,18.77
2022-11-26T23:46:30.985Z,14.87
2022-11-26T23:48:58.769Z,19.70
2022-11-26T23:51:30.327Z,44.23
2022-11-26T23:53:57.824Z,13.07
2022-11-26T23:56:32.525Z,16.90
2022-11-26T23:59:02.928Z,35.87
